createdAt,value
2022-09-11T00:02:33.739Z,3.00
2022-09-11T00:05:19.078Z,2.50
2022-09-11T00:08:04.371Z,2.50
2022-09-11T00:10:49.986Z,2.73
2022-09-11T00:13:38.033Z,2.80
2022-09-11T00:16:29.329Z,2.70
2022-09-11T00:19:18.848Z,2.90
2022-09-11T00:22:05.955Z,2.47
2022-09-11T00:24:51.112Z,2.63
2022-09-11T00:27:36.631Z,2.80
2022-09-11T00:30:22.854Z,2.63
2022-09-11T00:33:08.142Z,2.70
2022-09-11T00:36:06.044Z,2.93
2022-09-11T00:38:52.265Z,2.93
2022-09-11T00:41:40.067Z,2.50
2022-09-11T00:44:25.302Z,2.97
2022-09-11T00:47:16.143Z,2.50
2022-09-11T00:50:15.329Z,2.60
2022-09-11T00:53:06.570Z,2.90
2022-09-11T00:55:56.906Z,2.70
2022-09-11T00:58:46.716Z,2.90
2022-09-11T01:01:31.937Z,3.00
2022-09-11T01:04:17.750Z,2.87
2022-09-11T01:07:04.310Z,2.60
2022-09-11T01:09:51.227Z,2.87
2022-09-11T01:12:56.485Z,2.70
2022-09-11T01:15:52.115Z,2.90
2022-09-11T01:18:49.975Z,2.50
2022-09-11T01:21:56.927Z,2.90
2022-09-11T01:25:09.092Z,2.40
2022-09-11T01:28:00.867Z,2.60
2022-09-11T01:30:54.838Z,2.53
2022-09-11T01:33:46.163Z,2.40
2022-09-11T01:36:39.058Z,2.20
2022-09-11T01:39:32.932Z,2.53
2022-09-11T01:42:23.162Z,2.50
2022-09-11T01:45:12.131Z,2.40
2022-09-11T01:48:00.176Z,2.53
2022-09-11T01:50:48.141Z,2.60
2022-09-11T01:53:38.878Z,2.30
2022-09-11T01:56:29.788Z,2.47
2022-09-11T01:59:19.275Z,2.50
2022-09-11T02:02:07.830Z,2.30
2022-09-11T02:05:04.522Z,2.30
2022-09-11T02:08:03.093Z,2.63
2022-09-11T02:10:56.346Z,2.20
2022-09-11T02:14:05.082Z,2.03
2022-09-11T02:17:10.953Z,2.30
2022-09-11T02:20:00.600Z,2.33
2022-09-11T02:22:45.886Z,2.13
2022-09-11T02:25:31.231Z,2.23
2022-09-11T02:28:17.241Z,2.20
2022-09-11T02:31:03.486Z,2.10
2022-09-11T02:33:49.879Z,2.07
2022-09-11T02:37:04.703Z,2.07
2022-09-11T02:40:06.459Z,2.13
2022-09-11T02:43:19.078Z,2.17
2022-09-11T02:46:34.490Z,2.03
2022-09-11T02:49:31.935Z,1.97
2022-09-11T02:52:31.907Z,2.00
2022-09-11T02:55:25.344Z,2.10
2022-09-11T03:01:13.526Z,2.13
2022-09-11T03:03:59.687Z,1.70
2022-09-11T03:06:45.407Z,2.00
2022-09-11T03:09:34.924Z,1.90
2022-09-11T03:12:27.271Z,1.87
2022-09-11T03:15:12.545Z,2.00
2022-09-11T03:18:00.227Z,2.20
2022-09-11T03:20:49.820Z,1.70
2022-09-11T03:23:35.352Z,2.20
2022-09-11T03:26:20.867Z,2.30
2022-09-11T03:29:08.479Z,2.07
2022-09-11T03:31:54.737Z,1.90
2022-09-11T03:34:40.268Z,1.97
2022-09-11T03:37:27.098Z,1.90
2022-09-11T03:40:14.277Z,1.80
2022-09-11T03:43:00.462Z,2.00
2022-09-11T03:45:51.971Z,2.10
2022-09-11T03:48:37.562Z,1.90
2022-09-11T03:51:22.693Z,2.07
2022-09-11T03:54:07.939Z,1.80
2022-09-11T03:56:53.679Z,1.80
2022-09-11T03:59:39.187Z,1.80
2022-09-11T04:02:24.671Z,1.80
2022-09-11T04:05:11.933Z,1.83
2022-09-11T04:07:59.371Z,1.80
2022-09-11T04:10:44.559Z,1.90
2022-09-11T04:13:32.226Z,2.20
2022-09-11T04:16:20.497Z,1.83
2022-09-11T04:19:11.591Z,1.73
2022-09-11T04:21:56.802Z,1.77
2022-09-11T04:24:42.123Z,1.90
2022-09-11T04:27:27.558Z,1.70
2022-09-11T04:30:13.851Z,1.67
2022-09-11T04:32:59.402Z,1.80
2022-09-11T04:35:44.522Z,1.70
2022-09-11T04:38:29.850Z,1.53
2022-09-11T04:41:16.333Z,1.67
2022-09-11T04:44:05.398Z,1.70
2022-09-11T04:46:54.213Z,1.80
2022-09-11T04:49:41.289Z,1.50
2022-09-11T04:52:29.568Z,1.60
2022-09-11T04:55:15.110Z,1.50
2022-09-11T04:58:00.529Z,1.30
2022-09-11T05:00:45.722Z,1.50
2022-09-11T05:03:32.946Z,1.40
2022-09-11T05:06:19.747Z,1.50
2022-09-11T05:09:08.813Z,1.70
2022-09-11T05:11:54.505Z,1.50
2022-09-11T05:14:42.120Z,1.40
2022-09-11T05:17:27.749Z,1.30
2022-09-11T05:20:13.335Z,1.90
2022-09-11T05:22:59.905Z,1.40
2022-09-11T05:25:45.598Z,1.50
2022-09-11T05:28:31.082Z,1.50
2022-09-11T05:31:18.611Z,1.60
2022-09-11T05:34:05.156Z,1.50
2022-09-11T05:36:52.138Z,1.50
2022-09-11T05:39:37.717Z,1.53
2022-09-11T05:42:24.878Z,1.50
2022-09-11T05:45:13.202Z,1.57
2022-09-11T05:47:58.492Z,1.50
2022-09-11T05:50:52.901Z,1.53
2022-09-11T05:53:39.226Z,1.37
2022-09-11T05:56:28.211Z,1.30
2022-09-11T05:59:18.200Z,1.40
2022-09-11T06:02:07.144Z,1.60
2022-09-11T06:05:01.434Z,1.37
2022-09-11T06:07:46.826Z,1.60
2022-09-11T06:10:32.780Z,1.30
2022-09-11T06:13:17.984Z,1.40
2022-09-11T06:16:09.043Z,1.60
2022-09-11T06:18:54.777Z,1.47
2022-09-11T06:21:40.883Z,1.63
2022-09-11T06:24:38.776Z,1.60
2022-09-11T06:27:25.113Z,2.20
2022-09-11T06:30:12.264Z,2.93
2022-09-11T06:32:59.093Z,4.63
2022-09-11T06:35:46.134Z,4.80
2022-09-11T06:38:32.242Z,5.57
2022-09-11T06:41:18.004Z,5.57
2022-09-11T06:44:03.752Z,5.97
2022-09-11T06:46:50.203Z,6.27
2022-09-11T06:49:36.436Z,8.67
2022-09-11T06:52:41.111Z,8.70
2022-09-11T06:55:33.356Z,8.80
2022-09-11T06:58:25.549Z,8.20
2022-09-11T07:01:14.975Z,8.80
2022-09-11T07:04:02.929Z,8.73
2022-09-11T07:06:51.260Z,8.53
2022-09-11T07:09:36.519Z,8.60
2022-09-11T07:12:24.051Z,9.00
2022-09-11T07:15:10.996Z,8.67
2022-09-11T07:17:57.830Z,8.50
2022-09-11T07:20:43.084Z,9.80
2022-09-11T07:23:29.384Z,9.17
2022-09-11T07:26:16.756Z,8.97
2022-09-11T07:29:02.799Z,8.70
2022-09-11T07:31:48.137Z,7.60
2022-09-11T07:34:34.782Z,7.67
2022-09-11T07:37:23.882Z,8.13
2022-09-11T07:40:10.224Z,7.70
2022-09-11T07:42:55.540Z,7.30
2022-09-11T07:45:41.736Z,7.23
2022-09-11T07:48:26.823Z,6.87
2022-09-11T07:51:14.644Z,7.00
2022-09-11T07:54:01.274Z,7.37
2022-09-11T07:56:49.985Z,7.17
2022-09-11T07:59:35.837Z,6.27
2022-09-11T08:02:23.235Z,7.17
2022-09-11T08:05:08.579Z,6.90
2022-09-11T08:07:53.994Z,6.80
2022-09-11T08:10:40.927Z,7.40
2022-09-11T08:13:27.059Z,6.93
2022-09-11T08:16:12.893Z,7.07
2022-09-11T08:18:59.834Z,7.30
2022-09-11T08:21:47.830Z,6.37
2022-09-11T08:24:33.890Z,6.40
2022-09-11T08:27:21.677Z,6.50
2022-09-11T08:30:08.102Z,6.13
2022-09-11T08:32:55.273Z,6.47
2022-09-11T08:35:41.291Z,6.00
2022-09-11T08:38:28.147Z,6.07
2022-09-11T08:41:23.853Z,5.97
2022-09-11T08:44:09.543Z,5.83
2022-09-11T08:47:00.977Z,6.17
2022-09-11T08:49:58.521Z,5.67
2022-09-11T08:52:45.517Z,5.47
2022-09-11T08:55:38.516Z,5.53
2022-09-11T08:59:09.194Z,5.77
2022-09-11T09:02:31.969Z,5.70
2022-09-11T09:11:14.286Z,4.90
2022-09-11T09:14:15.345Z,5.30
2022-09-11T09:17:04.207Z,4.93
2022-09-11T09:20:01.793Z,5.47
2022-09-11T09:22:57.140Z,5.60
2022-09-11T09:25:45.898Z,5.50
2022-09-11T09:28:40.907Z,5.00
2022-09-11T09:31:30.609Z,4.97
2022-09-11T09:34:20.474Z,3.93
2022-09-11T09:37:11.448Z,4.77
2022-09-11T09:39:57.428Z,4.20
2022-09-11T09:43:12.301Z,4.43
2022-09-11T09:46:00.865Z,4.50
2022-09-11T09:48:47.495Z,4.40
2022-09-11T09:51:33.014Z,4.43
2022-09-11T09:54:22.917Z,4.20
2022-09-11T09:57:11.519Z,4.33
2022-09-11T10:00:14.449Z,4.53
2022-09-11T10:02:59.964Z,4.50
2022-09-11T10:05:46.455Z,4.30
2022-09-11T10:08:42.786Z,5.10
2022-09-11T10:11:29.318Z,4.80
2022-09-11T10:14:49.327Z,4.83
2022-09-11T10:17:30.311Z,4.47
2022-09-11T10:20:15.920Z,4.30
2022-09-11T10:23:23.464Z,5.07
2022-09-11T10:26:16.551Z,4.80
2022-09-11T10:29:08.514Z,4.68
2022-09-11T10:31:59.659Z,5.13
2022-09-11T10:34:45.554Z,4.87
2022-09-11T10:37:34.285Z,5.00
2022-09-11T10:40:22.848Z,4.60
2022-09-11T10:43:24.462Z,4.50
2022-09-11T10:46:19.018Z,4.90
2022-09-11T10:49:18.444Z,4.53
2022-09-11T10:52:22.111Z,5.20
2022-09-11T10:55:15.534Z,5.30
2022-09-11T11:01:07.040Z,4.87
2022-09-11T11:03:52.643Z,5.17
2022-09-11T11:07:07.116Z,5.47
2022-09-11T11:10:24.956Z,5.20
2022-09-11T11:13:14.692Z,5.37
2022-09-11T11:16:05.668Z,5.17
2022-09-11T11:19:24.156Z,4.90
2022-09-11T11:22:24.857Z,5.47
2022-09-11T11:25:17.461Z,5.37
2022-09-11T11:28:26.890Z,5.93
2022-09-11T11:32:09.781Z,5.13
2022-09-11T11:35:12.424Z,6.03
2022-09-11T11:38:14.485Z,5.63
2022-09-11T11:41:12.236Z,5.67
2022-09-11T11:44:01.698Z,5.80
2022-09-11T11:46:52.432Z,5.60
2022-09-11T11:49:54.911Z,5.90
2022-09-11T11:52:54.175Z,6.13
2022-09-11T11:56:00.222Z,5.23
2022-09-11T11:59:10.167Z,5.47
2022-09-11T12:02:05.335Z,5.60
2022-09-11T12:05:10.250Z,5.93
2022-09-11T12:07:55.684Z,5.17
2022-09-11T12:10:56.406Z,5.47
2022-09-11T12:13:48.031Z,5.70
2022-09-11T12:16:35.149Z,5.70
2022-09-11T12:19:25.324Z,5.40
2022-09-11T12:22:12.839Z,5.70
2022-09-11T12:25:01.190Z,5.17
2022-09-11T12:27:46.647Z,5.83
2022-09-11T12:30:59.866Z,5.23
2022-09-11T12:33:46.629Z,5.38
2022-09-11T12:36:49.721Z,5.77
2022-09-11T12:39:53.332Z,6.10
2022-09-11T12:42:38.803Z,6.05
2022-09-11T12:45:37.094Z,6.50
2022-09-11T12:48:44.314Z,6.30
2022-09-11T12:51:35.237Z,6.10
2022-09-11T12:54:24.770Z,6.37
2022-09-11T12:57:35.406Z,6.43
2022-09-11T13:00:35.153Z,6.80
2022-09-11T13:03:24.127Z,7.00
2022-09-11T13:06:13.638Z,6.70
2022-09-11T13:09:01.645Z,6.43
2022-09-11T13:11:52.387Z,7.17
2022-09-11T13:14:49.121Z,6.80
2022-09-11T13:17:46.851Z,6.30
2022-09-11T13:20:32.453Z,6.63
2022-09-11T13:23:18.931Z,6.40
2022-09-11T13:26:08.167Z,6.93
2022-09-11T13:28:56.437Z,6.50
2022-09-11T13:31:43.102Z,6.83
2022-09-11T13:34:30.151Z,6.70
2022-09-11T13:37:31.281Z,6.17
2022-09-11T13:40:22.507Z,6.77
2022-09-11T13:43:10.191Z,6.07
2022-09-11T13:46:18.170Z,6.63
2022-09-11T13:49:20.481Z,6.57
2022-09-11T13:52:07.094Z,6.17
2022-09-11T13:54:55.297Z,6.33
2022-09-11T13:58:00.798Z,6.10
2022-09-11T14:00:48.695Z,6.30
2022-09-11T14:03:34.319Z,6.10
2022-09-11T14:06:20.825Z,6.47
2022-09-11T14:09:06.432Z,7.13
2022-09-11T14:11:52.715Z,6.37
2022-09-11T14:14:38.237Z,6.70
2022-09-11T14:17:24.034Z,6.00
2022-09-11T14:20:20.395Z,5.83
2022-09-11T14:23:06.911Z,7.10
2022-09-11T14:26:06.200Z,6.57
2022-09-11T14:29:00.248Z,5.73
2022-09-11T14:31:45.940Z,6.40
2022-09-11T14:34:31.438Z,5.60
2022-09-11T14:37:17.407Z,6.00
2022-09-11T14:40:07.145Z,5.97
2022-09-11T14:42:53.165Z,6.17
2022-09-11T14:45:38.537Z,5.77
2022-09-11T14:48:25.784Z,5.43
2022-09-11T14:51:13.606Z,5.83
2022-09-11T14:53:59.032Z,5.57
2022-09-11T14:56:44.820Z,5.23
2022-09-11T14:59:30.109Z,5.67
2022-09-11T15:02:18.996Z,5.30
2022-09-11T15:05:07.765Z,5.13
2022-09-11T15:07:53.153Z,5.40
2022-09-11T15:10:38.492Z,5.90
2022-09-11T15:13:23.825Z,5.37
2022-09-11T15:16:12.021Z,5.30
2022-09-11T15:18:58.316Z,5.40
2022-09-11T15:21:44.318Z,5.67
2022-09-11T15:24:30.197Z,5.30
2022-09-11T15:27:16.023Z,5.40
2022-09-11T15:30:01.313Z,5.70
2022-09-11T15:32:47.775Z,5.47
2022-09-11T15:35:33.343Z,5.80
2022-09-11T15:38:18.840Z,5.90
2022-09-11T15:41:04.200Z,5.50
2022-09-11T15:43:50.602Z,5.33
2022-09-11T15:46:36.012Z,5.80
2022-09-11T15:49:22.721Z,5.57
2022-09-11T15:52:08.783Z,5.13
2022-09-11T15:54:54.387Z,5.07
2022-09-11T15:57:39.508Z,5.03
2022-09-11T16:00:24.825Z,5.20
2022-09-11T16:03:11.940Z,4.90
2022-09-11T16:05:57.660Z,4.80
2022-09-11T16:08:43.502Z,5.17
2022-09-11T16:11:29.797Z,4.97
2022-09-11T16:14:21.126Z,4.67
2022-09-11T16:17:07.678Z,4.60
2022-09-11T16:19:53.286Z,5.27
2022-09-11T16:22:38.546Z,4.43
2022-09-11T16:25:23.899Z,5.10
2022-09-11T16:28:09.266Z,4.83
2022-09-11T16:30:54.799Z,5.17
2022-09-11T16:33:47.917Z,5.30
2022-09-11T16:36:38.484Z,5.40
2022-09-11T16:39:24.034Z,4.97
2022-09-11T16:42:09.021Z,5.17
2022-09-11T16:44:54.389Z,5.17
2022-09-11T16:47:39.818Z,4.90
2022-09-11T16:50:25.270Z,5.13
2022-09-11T16:53:10.855Z,5.33
2022-09-11T16:55:56.180Z,5.70
2022-09-11T16:58:42.219Z,5.27
2022-09-11T17:01:28.286Z,5.10
2022-09-11T17:04:13.727Z,4.73
2022-09-11T17:06:58.995Z,4.90
2022-09-11T17:09:45.956Z,5.17
2022-09-11T17:12:31.404Z,4.60
2022-09-11T17:15:19.428Z,4.97
2022-09-11T17:18:05.068Z,5.03
2022-09-11T17:20:56.895Z,4.90
2022-09-11T17:23:43.003Z,4.33
2022-09-11T17:26:28.483Z,4.80
2022-09-11T17:29:13.787Z,4.83
2022-09-11T17:32:23.638Z,4.50
2022-09-11T17:35:05.797Z,4.60
2022-09-11T17:37:51.213Z,4.40
2022-09-11T17:40:37.187Z,4.57
2022-09-11T17:43:22.279Z,4.43
2022-09-11T17:46:13.071Z,4.70
2022-09-11T17:48:59.378Z,4.80
2022-09-11T17:51:44.967Z,4.23
2022-09-11T17:54:30.041Z,4.33
2022-09-11T17:57:16.141Z,4.60
2022-09-11T18:00:01.402Z,4.40
2022-09-11T18:02:49.557Z,4.57
2022-09-11T18:05:35.440Z,4.60
2022-09-11T18:08:21.129Z,4.30
2022-09-11T18:11:08.422Z,4.77
2022-09-11T18:13:54.870Z,4.87
2022-09-11T18:16:41.008Z,4.40
2022-09-11T18:19:28.237Z,4.50
2022-09-11T18:22:13.888Z,4.30
2022-09-11T18:25:00.108Z,4.33
2022-09-11T18:27:49.891Z,4.23
2022-09-11T18:30:39.339Z,4.87
2022-09-11T18:33:26.225Z,4.50
2022-09-11T18:36:14.264Z,4.60
2022-09-11T18:39:02.261Z,3.90
2022-09-11T18:41:49.669Z,4.63
2022-09-11T18:44:35.765Z,4.23
2022-09-11T18:47:22.134Z,4.43
2022-09-11T18:50:08.397Z,3.93
2022-09-11T18:52:53.673Z,4.00
2022-09-11T18:55:39.088Z,4.60
2022-09-11T18:58:24.817Z,4.73
2022-09-11T19:01:14.648Z,3.70
2022-09-11T19:04:05.402Z,4.40
2022-09-11T19:06:50.973Z,4.23
2022-09-11T19:09:36.358Z,4.30
2022-09-11T19:12:21.649Z,4.13
2022-09-11T19:15:11.287Z,3.97
2022-09-11T19:18:00.253Z,4.00
2022-09-11T19:20:45.675Z,4.47
2022-09-11T19:23:37.048Z,4.53
2022-09-11T19:26:25.605Z,4.30
2022-09-11T19:29:13.390Z,4.20
2022-09-11T19:32:01.258Z,4.23
2022-09-11T19:34:47.587Z,4.30
2022-09-11T19:37:34.995Z,3.80
2022-09-11T19:40:20.617Z,4.23
2022-09-11T19:43:07.097Z,4.00
2022-09-11T19:46:00.855Z,4.00
2022-09-11T19:48:48.485Z,4.07
2022-09-11T19:51:37.185Z,3.87
2022-09-11T19:54:23.044Z,4.43
2022-09-11T19:57:08.602Z,4.33
2022-09-11T19:59:54.243Z,4.00
2022-09-11T20:02:39.327Z,3.90
2022-09-11T20:05:24.607Z,4.00
2022-09-11T20:08:15.817Z,3.77
2022-09-11T20:11:07.397Z,4.07
2022-09-11T20:13:54.290Z,3.70
2022-09-11T20:16:39.883Z,3.87
2022-09-11T20:19:25.180Z,4.07
2022-09-11T20:22:10.854Z,4.10
2022-09-11T20:24:56.127Z,3.83
2022-09-11T20:27:41.139Z,4.10
2022-09-11T20:30:26.557Z,3.70
2022-09-11T20:33:12.853Z,3.67
2022-09-11T20:35:58.126Z,3.83
2022-09-11T20:38:44.041Z,3.70
2022-09-11T20:41:30.640Z,3.97
2022-09-11T20:44:15.879Z,3.60
2022-09-11T20:47:01.225Z,3.67
2022-09-11T20:49:46.295Z,3.70
2022-09-11T20:52:33.266Z,4.13
2022-09-11T20:55:21.617Z,3.90
2022-09-11T20:58:06.862Z,3.77
2022-09-11T21:00:52.592Z,3.57
2022-09-11T21:03:38.016Z,3.50
2022-09-11T21:06:26.622Z,4.20
2022-09-11T21:09:12.114Z,3.67
2022-09-11T21:11:57.329Z,3.63
2022-09-11T21:14:43.250Z,3.87
2022-09-11T21:17:28.535Z,3.53
2022-09-11T21:20:13.803Z,3.67
2022-09-11T21:22:59.175Z,3.70
2022-09-11T21:25:44.390Z,3.80
2022-09-11T21:28:30.937Z,3.87
2022-09-11T21:31:16.459Z,3.20
2022-09-11T21:34:01.698Z,3.27
2022-09-11T21:36:46.977Z,3.90
2022-09-11T21:39:32.154Z,4.00
2022-09-11T21:42:17.501Z,3.53
2022-09-11T21:45:02.756Z,3.60
2022-09-11T21:47:47.935Z,3.47
2022-09-11T21:50:33.210Z,3.43
2022-09-11T21:53:18.921Z,3.30
2022-09-11T21:56:05.356Z,3.40
2022-09-11T21:58:51.483Z,3.73
2022-09-11T22:01:36.955Z,3.63
2022-09-11T22:04:22.327Z,3.67
2022-09-11T22:07:07.607Z,3.67
2022-09-11T22:09:53.236Z,3.63
2022-09-11T22:12:38.724Z,3.73
2022-09-11T22:15:24.242Z,3.37
2022-09-11T22:18:09.998Z,3.70
2022-09-11T22:21:00.323Z,3.67
2022-09-11T22:23:46.055Z,3.60
2022-09-11T22:26:32.530Z,3.13
2022-09-11T22:29:17.966Z,3.77
2022-09-11T22:32:04.733Z,3.70
2022-09-11T22:34:49.814Z,3.30
2022-09-11T22:37:34.914Z,3.97
2022-09-11T22:40:20.581Z,3.70
2022-09-11T22:43:06.122Z,3.87
2022-09-11T22:45:52.432Z,3.57
2022-09-11T22:48:37.939Z,3.80
2022-09-11T22:51:23.004Z,3.87
2022-09-11T22:54:08.368Z,3.70
2022-09-11T22:56:53.612Z,3.63
2022-09-11T22:59:39.093Z,3.50
2022-09-11T23:02:25.214Z,3.57
2022-09-11T23:05:29.021Z,3.37
2022-09-11T23:08:14.832Z,3.17
2022-09-11T23:11:02.814Z,3.30
2022-09-11T23:13:52.168Z,3.20
2022-09-11T23:16:37.794Z,3.50
2022-09-11T23:19:23.151Z,3.50
2022-09-11T23:22:08.318Z,3.07
2022-09-11T23:24:53.673Z,3.17
2022-09-11T23:27:38.818Z,3.37
2022-09-11T23:30:24.238Z,3.40
2022-09-11T23:33:10.059Z,3.60
2022-09-11T23:35:55.600Z,3.27
2022-09-11T23:38:44.069Z,3.73
2022-09-11T23:41:29.567Z,3.50
2022-09-11T23:44:14.888Z,3.47
2022-09-11T23:47:02.161Z,3.30
2022-09-11T23:49:48.130Z,3.43
2022-09-11T23:52:36.439Z,3.30
2022-09-11T23:55:22.042Z,3.70
2022-09-11T23:58:07.249Z,3.30
